createdAt,value
2018-12-20T00:02:21.026Z,100612.22
2018-12-20T00:04:47.043Z,100606.95
2018-12-20T00:07:13.058Z,100605.80
2018-12-20T00:09:39.041Z,100599.84
2018-12-20T00:12:05.061Z,100606.55
2018-12-20T00:14:31.051Z,100605.38
2018-12-20T00:16:57.017Z,100609.82
2018-12-20T00:19:23.015Z,100611.96
2018-12-20T00:21:49.124Z,100606.86
2018-12-20T00:24:15.225Z,100604.91
2018-12-20T00:26:41.179Z,100597.33
2018-12-20T00:29:07.142Z,100595.03
2018-12-20T00:31:33.254Z,100596.70
2018-12-20T00:33:59.298Z,100590.44
2018-12-20T00:36:25.791Z,100593.58
2018-12-20T00:38:51.863Z,100591.77
2018-12-20T00:41:17.825Z,100594.40
2018-12-20T00:43:43.844Z,100588.80
2018-12-20T00:46:09.984Z,100588.11
2018-12-20T00:48:36.080Z,100589.75
2018-12-20T00:51:02.081Z,100594.70
2018-12-20T00:53:28.260Z,100590.88
2018-12-20T00:55:54.419Z,100591.38
2018-12-20T00:58:20.579Z,100591.53
2018-12-20T01:00:46.681Z,100589.36
2018-12-20T01:03:12.690Z,100586.20
2018-12-20T01:05:38.854Z,100592.79
2018-12-20T01:08:04.869Z,100593.91
2018-12-20T01:10:31.054Z,100594.41
2018-12-20T01:12:57.100Z,100597.37
2018-12-20T01:15:23.188Z,100599.51
2018-12-20T01:17:49.272Z,100608.47
2018-12-20T01:20:15.321Z,100600.56
2018-12-20T01:22:41.355Z,100607.35
2018-12-20T01:25:07.459Z,100596.81
2018-12-20T01:27:33.513Z,100604.41
2018-12-20T01:29:59.627Z,100604.22
2018-12-20T01:32:25.672Z,100602.54
2018-12-20T01:34:51.653Z,100606.50
2018-12-20T01:37:17.877Z,100600.40
2018-12-20T01:39:44.103Z,100602.70
2018-12-20T01:42:10.214Z,100609.30
2018-12-20T01:44:36.262Z,100613.05
2018-12-20T01:47:02.222Z,100611.73
2018-12-20T01:49:28.373Z,100612.06
2018-12-20T01:51:54.489Z,100606.59
2018-12-20T01:54:20.478Z,100607.41
2018-12-20T01:56:46.483Z,100614.01
2018-12-20T01:59:12.599Z,100604.94
2018-12-20T02:01:38.632Z,100606.95
2018-12-20T02:04:04.682Z,100607.28
2018-12-20T02:06:31.049Z,100604.02
2018-12-20T02:08:57.277Z,100606.03
2018-12-20T02:11:23.938Z,100606.23
2018-12-20T02:13:49.962Z,100600.30
2018-12-20T02:16:16.075Z,100601.62
2018-12-20T02:18:42.199Z,100603.30
2018-12-20T02:21:08.322Z,100598.02
2018-12-20T02:23:34.428Z,100597.89
2018-12-20T02:26:00.394Z,100595.72
2018-12-20T02:28:26.373Z,100592.13
2018-12-20T02:30:52.646Z,100585.53
2018-12-20T02:33:18.758Z,100584.84
2018-12-20T02:35:44.996Z,100574.30
2018-12-20T02:38:11.042Z,100574.93
2018-12-20T02:40:37.140Z,100572.63
2018-12-20T02:43:03.263Z,100573.74
2018-12-20T02:45:29.349Z,100575.92
2018-12-20T02:47:55.465Z,100571.96
2018-12-20T02:50:21.599Z,100573.61
2018-12-20T02:52:47.627Z,100577.07
2018-12-20T02:55:13.589Z,100570.97
2018-12-20T02:57:39.590Z,100572.98
2018-12-20T03:00:05.603Z,100571.30
2018-12-20T03:02:31.572Z,100568.83
2018-12-20T03:04:57.520Z,100572.63
2018-12-20T03:07:23.524Z,100572.63
2018-12-20T03:09:49.622Z,100566.89
2018-12-20T03:12:15.746Z,100564.38
2018-12-20T03:14:41.821Z,100570.34
2018-12-20T03:17:07.940Z,100572.98
2018-12-20T03:19:33.979Z,100570.21
2018-12-20T03:22:00.070Z,100566.09
2018-12-20T03:24:26.213Z,100569.55
2018-12-20T03:26:52.483Z,100567.41
2018-12-20T03:29:18.578Z,100565.27
2018-12-20T03:31:44.530Z,100565.13
2018-12-20T03:34:10.512Z,100562.00
2018-12-20T03:36:36.603Z,100561.84
2018-12-20T03:39:02.735Z,100560.06
2018-12-20T03:41:28.761Z,100556.43
2018-12-20T03:43:54.847Z,100558.57
2018-12-20T03:46:20.926Z,100557.25
2018-12-20T03:48:46.960Z,100551.66
2018-12-20T03:51:13.016Z,100552.47
2018-12-20T03:53:39.353Z,100552.15
2018-12-20T03:56:05.581Z,100552.61
2018-12-20T03:58:31.782Z,100554.59
2018-12-20T04:00:58.080Z,100556.73
2018-12-20T04:03:24.137Z,100552.61
2018-12-20T04:05:50.285Z,100555.25
2018-12-20T04:08:16.322Z,100556.92
2018-12-20T04:10:42.428Z,100555.73
2018-12-20T04:13:08.503Z,100559.56
2018-12-20T04:15:37.964Z,100561.70
2018-12-20T04:18:02.648Z,100561.70
2018-12-20T04:20:28.873Z,100556.56
2018-12-20T04:22:54.898Z,100556.43
2018-12-20T04:25:20.933Z,100559.06
2018-12-20T04:27:46.976Z,100555.94
2018-12-20T04:30:13.054Z,100557.25
2018-12-20T04:32:39.192Z,100552.34
2018-12-20T04:35:05.523Z,100551.84
2018-12-20T04:37:31.760Z,100552.67
2018-12-20T04:39:57.819Z,100551.84
2018-12-20T04:42:23.837Z,100563.58
2018-12-20T04:44:49.889Z,100564.53
2018-12-20T04:47:16.024Z,100569.31
2018-12-20T04:49:42.051Z,100567.53
2018-12-20T04:52:08.302Z,100573.27
2018-12-20T04:54:34.512Z,100573.13
2018-12-20T04:57:00.701Z,100571.63
2018-12-20T04:59:26.988Z,100569.48
2018-12-20T05:01:53.190Z,100568.79
2018-12-20T05:04:19.572Z,100569.75
2018-12-20T05:06:45.997Z,100569.94
2018-12-20T05:09:12.161Z,100575.70
2018-12-20T05:11:38.111Z,100574.39
2018-12-20T05:14:04.143Z,100575.44
2018-12-20T05:16:30.419Z,100579.39
2018-12-20T05:18:56.611Z,100575.14
2018-12-20T05:21:22.887Z,100575.63
2018-12-20T05:23:49.273Z,100575.27
2018-12-20T05:26:15.404Z,100578.73
2018-12-20T05:28:41.455Z,100573.95
2018-12-20T05:31:08.783Z,100578.90
2018-12-20T05:33:34.841Z,100585.48
2018-12-20T05:36:00.842Z,100578.41
2018-12-20T05:38:27.003Z,100583.18
2018-12-20T05:40:53.193Z,100582.36
2018-12-20T05:43:19.268Z,100584.30
2018-12-20T05:45:45.279Z,100584.30
2018-12-20T05:48:11.494Z,100581.80
2018-12-20T05:50:37.699Z,100586.94
2018-12-20T05:53:03.656Z,100586.31
2018-12-20T05:55:29.665Z,100582.03
2018-12-20T05:57:55.696Z,100587.30
2018-12-20T06:00:21.966Z,100596.86
2018-12-20T06:02:48.147Z,100598.18
2018-12-20T06:05:14.427Z,100604.27
2018-12-20T06:07:40.589Z,100601.50
2018-12-20T06:10:06.791Z,100601.14
2018-12-20T06:12:32.841Z,100597.19
2018-12-20T06:17:31.387Z,100603.95
2018-12-20T06:19:57.578Z,100608.59
2018-12-20T06:22:23.639Z,100607.90
2018-12-20T06:24:49.667Z,100608.03
2018-12-20T06:27:15.635Z,100612.48
2018-12-20T06:29:41.657Z,100622.20
2018-12-20T06:32:07.618Z,100620.88
2018-12-20T06:34:33.618Z,100611.16
2018-12-20T06:36:59.668Z,100618.94
2018-12-20T06:39:25.659Z,100621.58
2018-12-20T06:41:51.685Z,100621.41
2018-12-20T06:44:17.718Z,100618.45
2018-12-20T06:46:43.759Z,100621.77
2018-12-20T06:49:09.795Z,100623.91
2018-12-20T06:51:35.736Z,100622.73
2018-12-20T06:54:01.751Z,100628.83
2018-12-20T06:56:27.751Z,100622.73
2018-12-20T06:58:53.797Z,100626.55
2018-12-20T07:01:19.813Z,100629.32
2018-12-20T07:03:45.734Z,100628.99
2018-12-20T07:06:11.689Z,100631.95
2018-12-20T07:08:37.714Z,100635.22
2018-12-20T07:11:03.670Z,100630.44
2018-12-20T07:13:29.661Z,100627.48
2018-12-20T07:15:55.619Z,100634.89
2018-12-20T07:18:21.575Z,100634.06
2018-12-20T07:20:47.513Z,100638.35
2018-12-20T07:23:13.475Z,100639.67
2018-12-20T07:25:39.451Z,100636.54
2018-12-20T07:28:05.473Z,100637.39
2018-12-20T07:30:31.459Z,100637.03
2018-12-20T07:32:57.410Z,100638.25
2018-12-20T07:35:23.418Z,100637.30
2018-12-20T07:37:49.373Z,100635.81
2018-12-20T07:40:15.331Z,100637.48
2018-12-20T07:42:41.386Z,100638.18
2018-12-20T07:45:07.388Z,100643.45
2018-12-20T07:47:33.381Z,100654.46
2018-12-20T07:49:59.381Z,100652.12
2018-12-20T07:52:25.421Z,100658.78
2018-12-20T07:54:51.371Z,100655.65
2018-12-20T07:57:17.325Z,100665.87
2018-12-20T07:59:43.374Z,100661.55
2018-12-20T08:02:09.334Z,100662.54
2018-12-20T08:04:35.325Z,100666.33
2018-12-20T08:07:01.280Z,100661.41
2018-12-20T08:09:27.226Z,100673.78
2018-12-20T08:11:53.188Z,100667.65
2018-12-20T08:14:19.148Z,100672.45
2018-12-20T08:16:46.093Z,100674.23
2018-12-20T08:19:12.366Z,100677.23
2018-12-20T08:21:38.328Z,100676.05
2018-12-20T08:24:04.297Z,100676.74
2018-12-20T08:26:30.286Z,100678.06
2018-12-20T08:28:56.236Z,100679.88
2018-12-20T08:31:22.187Z,100682.84
2018-12-20T08:33:48.140Z,100685.34
2018-12-20T08:36:14.106Z,100687.98
2018-12-20T08:38:40.161Z,100690.98
2018-12-20T08:41:06.118Z,100690.98
2018-12-20T08:43:32.075Z,100695.89
2018-12-20T08:45:58.037Z,100694.25
2018-12-20T08:48:24.004Z,100702.16
2018-12-20T08:50:49.973Z,100693.75
2018-12-20T08:53:15.932Z,100702.48
2018-12-20T08:55:41.917Z,100699.52
2018-12-20T08:58:07.874Z,100702.16
2018-12-20T09:00:33.867Z,100701.17
2018-12-20T09:02:59.846Z,100701.17
2018-12-20T09:05:25.815Z,100699.52
2018-12-20T09:07:51.782Z,100703.11
2018-12-20T09:10:17.729Z,100701.30
2018-12-20T09:12:43.709Z,100699.98
2018-12-20T09:15:09.669Z,100703.80
2018-12-20T09:17:35.629Z,100707.77
2018-12-20T09:20:01.586Z,100708.48
2018-12-20T09:22:27.582Z,100713.27
2018-12-20T09:24:53.525Z,100711.81
2018-12-20T09:27:19.510Z,100715.91
2018-12-20T09:29:45.464Z,100718.31
2018-12-20T09:32:11.533Z,100720.84
2018-12-20T09:34:37.519Z,100720.45
2018-12-20T09:37:03.622Z,100718.54
2018-12-20T09:39:29.570Z,100722.98
2018-12-20T09:41:55.541Z,100724.57
2018-12-20T09:44:21.568Z,100719.63
2018-12-20T09:46:47.632Z,100722.27
2018-12-20T09:49:13.641Z,100722.27
2018-12-20T09:51:39.598Z,100727.05
2018-12-20T09:54:05.634Z,100722.27
2018-12-20T09:56:31.673Z,100716.50
2018-12-20T09:58:57.706Z,100715.58
2018-12-20T10:01:23.647Z,100721.67
2018-12-20T10:03:49.642Z,100722.00
2018-12-20T10:06:15.619Z,100720.35
2018-12-20T10:08:41.594Z,100713.76
2018-12-20T10:11:07.546Z,100712.28
2018-12-20T10:13:33.497Z,100713.76
2018-12-20T10:15:59.579Z,100710.14
2018-12-20T10:18:25.638Z,100708.81
2018-12-20T10:20:52.113Z,100702.22
2018-12-20T10:23:18.085Z,100702.85
2018-12-20T10:25:44.078Z,100700.21
2018-12-20T10:28:10.033Z,100700.58
2018-12-20T10:30:36.261Z,100705.84
2018-12-20T10:33:02.218Z,100710.14
2018-12-20T10:35:28.229Z,100708.48
2018-12-20T10:37:54.210Z,100713.13
2018-12-20T10:40:20.167Z,100705.36
2018-12-20T10:42:46.122Z,100709.64
2018-12-20T10:45:12.065Z,100709.80
2018-12-20T10:47:38.029Z,100706.67
2018-12-20T10:50:03.991Z,100708.59
2018-12-20T10:52:29.954Z,100709.91
2018-12-20T10:54:55.914Z,100704.37
2018-12-20T10:57:21.915Z,100700.58
2018-12-20T10:59:47.921Z,100703.80
2018-12-20T11:02:13.878Z,100695.56
2018-12-20T11:04:39.913Z,100700.34
2018-12-20T11:07:05.874Z,100692.66
2018-12-20T11:09:31.910Z,100688.08
2018-12-20T11:11:57.866Z,100694.02
2018-12-20T11:14:23.824Z,100689.09
2018-12-20T11:16:49.795Z,100680.20
2018-12-20T11:19:15.865Z,100682.14
2018-12-20T11:21:41.819Z,100682.34
2018-12-20T11:24:07.869Z,100670.02
2018-12-20T11:26:33.849Z,100669.16
2018-12-20T11:28:59.818Z,100667.37
2018-12-20T11:31:25.887Z,100654.02
2018-12-20T11:33:51.884Z,100657.16
2018-12-20T11:36:17.877Z,100660.15
2018-12-20T11:38:43.829Z,100657.45
2018-12-20T11:41:09.786Z,100652.38
2018-12-20T11:43:35.746Z,100654.19
2018-12-20T11:46:01.706Z,100648.91
2018-12-20T11:48:27.651Z,100655.97
2018-12-20T11:50:53.944Z,100651.69
2018-12-20T11:53:19.925Z,100652.51
2018-12-20T11:55:45.880Z,100652.02
2018-12-20T11:58:11.853Z,100656.46
2018-12-20T12:00:37.823Z,100648.22
2018-12-20T12:03:03.871Z,100651.69
2018-12-20T12:05:29.824Z,100648.91
2018-12-20T12:07:55.809Z,100657.64
2018-12-20T12:10:21.762Z,100658.47
2018-12-20T12:12:47.718Z,100655.34
2018-12-20T12:15:13.803Z,100652.23
2018-12-20T12:17:39.851Z,100647.42
2018-12-20T12:20:05.851Z,100651.11
2018-12-20T12:22:31.890Z,100651.74
2018-12-20T12:24:57.858Z,100652.56
2018-12-20T12:27:23.833Z,100650.42
2018-12-20T12:29:49.818Z,100646.11
2018-12-20T12:32:15.760Z,100651.25
2018-12-20T12:34:41.742Z,100643.34
2018-12-20T12:37:07.713Z,100646.99
2018-12-20T12:39:33.689Z,100651.94
2018-12-20T12:41:59.650Z,100655.89
2018-12-20T12:44:25.663Z,100649.93
2018-12-20T12:46:51.633Z,100651.88
2018-12-20T12:49:17.594Z,100651.25
2018-12-20T12:51:44.074Z,100657.98
2018-12-20T12:54:11.534Z,100651.58
2018-12-20T12:56:37.500Z,100660.98
2018-12-20T12:59:03.549Z,100655.50
2018-12-20T13:01:29.467Z,100655.14
2018-12-20T13:03:57.346Z,100650.86
2018-12-20T13:06:23.449Z,100653.50
2018-12-20T13:08:49.492Z,100651.69
2018-12-20T13:11:15.456Z,100647.86
2018-12-20T13:13:41.462Z,100651.16
2018-12-20T13:16:07.457Z,100646.22
2018-12-20T13:18:33.457Z,100641.77
2018-12-20T13:20:59.455Z,100642.26
2018-12-20T13:23:25.733Z,100634.67
2018-12-20T13:25:51.939Z,100637.31
2018-12-20T13:28:17.912Z,100639.63
2018-12-20T13:30:43.879Z,100644.40
2018-12-20T13:33:09.867Z,100644.27
2018-12-20T13:35:35.833Z,100647.53
2018-12-20T13:38:01.828Z,100653.50
2018-12-20T13:40:27.781Z,100647.73
2018-12-20T13:42:53.754Z,100643.77
2018-12-20T13:45:19.707Z,100651.88
2018-12-20T13:47:45.692Z,100655.01
2018-12-20T13:50:11.746Z,100652.23
2018-12-20T13:52:37.717Z,100652.70
2018-12-20T13:55:03.755Z,100653.83
2018-12-20T13:57:29.911Z,100656.83
2018-12-20T13:59:55.922Z,100654.66
2018-12-20T14:02:21.884Z,100651.69
2018-12-20T14:04:47.841Z,100649.05
2018-12-20T14:07:13.901Z,100655.34
2018-12-20T14:09:39.854Z,100651.88
2018-12-20T14:12:05.806Z,100655.01
2018-12-20T14:14:31.765Z,100656.66
2018-12-20T14:16:57.719Z,100655.50
2018-12-20T14:19:23.672Z,100662.73
2018-12-20T14:21:49.677Z,100672.48
2018-12-20T14:24:15.686Z,100666.38
2018-12-20T14:26:41.745Z,100675.28
2018-12-20T14:29:07.832Z,100669.52
2018-12-20T14:31:33.843Z,100673.61
2018-12-20T14:33:59.811Z,100677.56
2018-12-20T14:36:25.849Z,100671.46
2018-12-20T14:38:51.828Z,100672.45
2018-12-20T14:41:17.774Z,100671.16
2018-12-20T14:43:43.837Z,100679.08
2018-12-20T14:46:09.796Z,100677.92
2018-12-20T14:48:39.500Z,100681.02
2018-12-20T14:51:03.729Z,100669.65
2018-12-20T14:53:29.700Z,100676.05
2018-12-20T14:55:55.654Z,100669.16
2018-12-20T14:58:21.715Z,100667.37
2018-12-20T15:00:47.682Z,100672.02
2018-12-20T15:03:13.647Z,100667.70
2018-12-20T15:05:39.600Z,100672.84
2018-12-20T15:08:05.554Z,100671.03
2018-12-20T15:10:31.535Z,100670.53
2018-12-20T15:12:57.498Z,100662.62
2018-12-20T15:15:23.463Z,100668.59
2018-12-20T15:17:50.163Z,100668.92
2018-12-20T15:20:16.166Z,100668.92
2018-12-20T15:22:42.151Z,100672.73
2018-12-20T15:25:08.115Z,100673.06
2018-12-20T15:27:34.086Z,100679.66
2018-12-20T15:30:00.062Z,100689.26
2018-12-20T15:32:26.022Z,100687.31
2018-12-20T15:34:52.025Z,100690.44
2018-12-20T15:37:17.987Z,100693.41
2018-12-20T15:39:43.974Z,100695.72
2018-12-20T15:42:09.936Z,100695.22
2018-12-20T15:44:35.986Z,100695.98
2018-12-20T15:47:01.962Z,100697.17
2018-12-20T15:49:27.941Z,100706.04
2018-12-20T15:51:53.911Z,100706.90
2018-12-20T15:54:19.878Z,100707.52
2018-12-20T15:56:45.847Z,100716.70
2018-12-20T15:59:11.822Z,100714.22
2018-12-20T16:01:37.802Z,100712.21
2018-12-20T16:04:03.754Z,100717.81
2018-12-20T16:06:29.709Z,100720.95
2018-12-20T16:08:55.672Z,100721.77
2018-12-20T16:11:21.650Z,100722.13
2018-12-20T16:13:47.650Z,100728.23
2018-12-20T16:16:13.637Z,100728.03
2018-12-20T16:18:39.635Z,100730.67
2018-12-20T16:21:05.602Z,100725.66
2018-12-20T16:23:31.575Z,100729.98
2018-12-20T16:25:57.531Z,100735.59
2018-12-20T16:28:23.491Z,100739.91
2018-12-20T16:30:49.450Z,100737.59
2018-12-20T16:33:15.414Z,100736.28
2018-12-20T16:35:41.391Z,100745.02
2018-12-20T16:38:07.348Z,100750.16
2018-12-20T16:40:33.336Z,100747.19
2018-12-20T16:42:59.293Z,100754.41
2018-12-20T16:45:25.270Z,100755.23
2018-12-20T16:47:51.230Z,100752.59
2018-12-20T16:50:17.219Z,100753.09
2018-12-20T16:52:43.260Z,100756.69
2018-12-20T16:55:09.289Z,100753.09
2018-12-20T16:57:35.249Z,100760.38
2018-12-20T17:00:01.255Z,100754.41
2018-12-20T17:02:27.300Z,100759.48
2018-12-20T17:04:53.317Z,100755.99
2018-12-20T17:07:19.337Z,100757.61
2018-12-20T17:09:45.297Z,100757.97
2018-12-20T17:12:11.248Z,100763.57
2018-12-20T17:14:37.274Z,100762.38
2018-12-20T17:17:03.229Z,100761.56
2018-12-20T17:19:29.203Z,100766.83
2018-12-20T17:21:55.177Z,100760.73
2018-12-20T17:24:21.162Z,100763.04
2018-12-20T17:26:47.123Z,100759.09
2018-12-20T17:29:13.190Z,100763.38
2018-12-20T17:31:39.436Z,100756.68
2018-12-20T17:34:05.423Z,100758.69
2018-12-20T17:36:31.388Z,100761.23
2018-12-20T17:38:57.417Z,100764.82
2018-12-20T17:41:23.409Z,100765.67
2018-12-20T17:43:49.482Z,100764.45
2018-12-20T17:46:15.478Z,100758.49
2018-12-20T17:48:41.682Z,100762.81
2018-12-20T17:51:07.741Z,100761.12
2018-12-20T17:53:33.688Z,100761.33
2018-12-20T17:55:59.685Z,100759.31
2018-12-20T17:58:25.686Z,100759.19
2018-12-20T18:00:51.687Z,100756.55
2018-12-20T18:03:17.663Z,100755.23
2018-12-20T18:05:43.779Z,100752.59
2018-12-20T18:08:09.733Z,100749.95
2018-12-20T18:10:35.777Z,100765.28
2018-12-20T18:13:01.813Z,100763.50
2018-12-20T18:15:27.869Z,100758.43
2018-12-20T18:17:53.831Z,100759.28
2018-12-20T18:20:19.786Z,100753.65
2018-12-20T18:22:45.773Z,100755.46
2018-12-20T18:25:11.759Z,100761.42
2018-12-20T18:27:37.736Z,100761.42
2018-12-20T18:30:03.718Z,100762.38
2018-12-20T18:32:29.670Z,100765.67
2018-12-20T18:34:55.640Z,100760.41
2018-12-20T18:37:21.654Z,100765.52
2018-12-20T18:39:47.726Z,100756.78
2018-12-20T18:42:13.678Z,100761.23
2018-12-20T18:44:39.673Z,100765.19
2018-12-20T18:47:05.688Z,100761.33
2018-12-20T18:49:31.646Z,100768.31
2018-12-20T18:51:57.677Z,100767.59
2018-12-20T18:54:23.638Z,100775.38
2018-12-20T18:56:49.616Z,100771.78
2018-12-20T18:59:15.592Z,100775.38
2018-12-20T19:01:41.557Z,100769.04
2018-12-20T19:04:07.518Z,100768.08
2018-12-20T19:06:33.484Z,100767.72
2018-12-20T19:08:59.537Z,100775.50
2018-12-20T19:11:25.495Z,100772.37
2018-12-20T19:13:51.551Z,100780.77
2018-12-20T19:16:17.545Z,100777.64
2018-12-20T19:18:43.497Z,100765.58
2018-12-20T19:21:09.583Z,100782.59
2018-12-20T19:23:35.687Z,100781.73
2018-12-20T19:26:01.762Z,100785.36
2018-12-20T19:28:27.871Z,100771.61
2018-12-20T19:30:53.843Z,100775.77
2018-12-20T19:33:19.840Z,100774.24
2018-12-20T19:35:45.836Z,100770.28
2018-12-20T19:38:20.306Z,100767.03
2018-12-20T19:40:39.797Z,100768.02
2018-12-20T19:43:05.773Z,100768.97
2018-12-20T19:45:31.803Z,100773.70
2018-12-20T19:47:57.830Z,100780.30
2018-12-20T19:50:23.807Z,100775.02
2018-12-20T19:52:49.790Z,100781.48
2018-12-20T19:55:15.872Z,100786.59
2018-12-20T19:57:41.819Z,100785.98
2018-12-20T20:00:07.803Z,100786.80
2018-12-20T20:02:33.782Z,100793.39
2018-12-20T20:04:59.870Z,100782.36
2018-12-20T20:07:25.907Z,100784.16
2018-12-20T20:09:51.859Z,100782.16
2018-12-20T20:12:17.874Z,100778.77
2018-12-20T20:14:43.842Z,100781.20
2018-12-20T20:17:09.867Z,100776.05
2018-12-20T20:19:35.931Z,100780.01
2018-12-20T20:22:01.931Z,100771.47
2018-12-20T20:24:28.125Z,100758.42
2018-12-20T20:26:54.278Z,100754.47
2018-12-20T20:29:20.287Z,100757.47
2018-12-20T20:31:46.435Z,100753.84
2018-12-20T20:34:12.586Z,100756.55
2018-12-20T20:36:38.590Z,100754.73
2018-12-20T20:39:04.570Z,100755.46
2018-12-20T20:41:30.542Z,100753.02
2018-12-20T20:43:56.507Z,100748.73
2018-12-20T20:46:22.459Z,100746.77
2018-12-20T20:48:48.446Z,100755.36
2018-12-20T20:51:14.418Z,100758.50
2018-12-20T20:53:40.426Z,100750.25
2018-12-20T20:56:06.382Z,100759.33
2018-12-20T20:58:32.425Z,100751.08
2018-12-20T21:00:58.379Z,100751.08
2018-12-20T21:03:24.373Z,100755.36
2018-12-20T21:05:50.314Z,100758.30
2018-12-20T21:08:16.270Z,100766.20
2018-12-20T21:10:42.239Z,100764.89
2018-12-20T21:13:08.253Z,100766.34
2018-12-20T21:15:34.215Z,100766.34
2018-12-20T21:18:00.182Z,100762.75
2018-12-20T21:20:30.643Z,100758.63
2018-12-20T21:22:54.439Z,100754.67
2018-12-20T21:25:20.417Z,100757.47
2018-12-20T21:27:46.373Z,100754.67
2018-12-20T21:30:12.438Z,100752.89
2018-12-20T21:32:38.577Z,100753.02
2018-12-20T21:35:04.562Z,100761.63
2018-12-20T21:37:30.529Z,100749.89
2018-12-20T21:39:56.522Z,100751.70
2018-12-20T21:42:22.494Z,100747.25
2018-12-20T21:44:48.481Z,100746.77
2018-12-20T21:47:14.445Z,100746.43
2018-12-20T21:49:40.418Z,100750.52
2018-12-20T21:52:06.551Z,100747.42
2018-12-20T21:54:32.513Z,100758.92
2018-12-20T21:56:58.530Z,100766.50
2018-12-20T21:59:24.580Z,100767.00
2018-12-20T22:01:50.559Z,100766.14
2018-12-20T22:04:16.626Z,100763.97
2018-12-20T22:06:42.591Z,100768.31
2018-12-20T22:09:08.562Z,100766.02
2018-12-20T22:11:34.540Z,100760.73
2018-12-20T22:14:00.792Z,100764.56
2018-12-20T22:16:26.836Z,100759.13
2018-12-20T22:18:52.921Z,100763.28
2018-12-20T22:21:18.933Z,100752.23
2018-12-20T22:23:44.901Z,100762.78
2018-12-20T22:26:10.870Z,100761.70
2018-12-20T22:28:36.835Z,100756.55
2018-12-20T22:31:02.821Z,100757.05
2018-12-20T22:33:28.839Z,100764.95
2018-12-20T22:35:54.886Z,100763.28
2018-12-20T22:38:20.854Z,100764.06
2018-12-20T22:40:46.871Z,100765.02
2018-12-20T22:43:12.858Z,100763.04
2018-12-20T22:45:38.839Z,100771.16
2018-12-20T22:48:04.891Z,100767.82
2018-12-20T22:50:30.862Z,100768.31
2018-12-20T22:52:56.818Z,100767.09
2018-12-20T22:55:22.808Z,100769.14
2018-12-20T22:57:48.799Z,100767.59
2018-12-20T23:00:14.750Z,100763.50
2018-12-20T23:02:40.746Z,100771.41
2018-12-20T23:05:06.812Z,100769.33
2018-12-20T23:07:32.781Z,100759.20
2018-12-20T23:09:58.802Z,100757.81
2018-12-20T23:12:24.994Z,100754.98
2018-12-20T23:14:50.938Z,100749.87
2018-12-20T23:17:17.023Z,100742.22
2018-12-20T23:19:42.994Z,100742.52
2018-12-20T23:22:09.091Z,100744.94
2018-12-20T23:24:35.094Z,100744.12
2018-12-20T23:27:01.046Z,100735.38
2018-12-20T23:29:27.080Z,100721.84
2018-12-20T23:31:53.098Z,100717.89
2018-12-20T23:34:19.053Z,100711.92
2018-12-20T23:36:45.241Z,100703.69
2018-12-20T23:39:11.250Z,100711.27
2018-12-20T23:41:37.210Z,100698.91
2018-12-20T23:44:03.183Z,100700.36
2018-12-20T23:46:29.356Z,100702.66
2018-12-20T23:48:55.355Z,100702.16
2018-12-20T23:51:21.293Z,100707.44
2018-12-20T23:53:47.264Z,100706.61
2018-12-20T23:56:13.258Z,100710.07
2018-12-20T23:58:39.221Z,100728.52
